Hovedside
METAR-TAF:

METAR-TAF

Lufthavner :

Sankt Michel lufthavn

Sankt Michel, Finland

breddegrad: 61-44N, lengdegrad: 027-18E, høyde over havet: 138 m

Gjeldene værobservasjon

Denne rapporten ble laget for 14 minutter siden, klokken 01:50 UTC
Vind 4 kt fra Nordøst, skiftende mellom Nord-nordvest og Øst
Temperatur 0°C
Luftfuktighet 64%
Trykk 1039 hPa
Sikt 10 km eller mer
Overskyet i en høyde av 2600 ft

METAR: EFMI 190150Z AUTO 05004KT 340V100 9999 OVC026 M00/M06 Q1039

Tid: 04:04 (02:04 UTC)


TAF: fraværende

Værobservasjoner og værvarsel for over 4000 flyplasser (METAR- og TAF-rapporter).

Tilgjengelige stasjoner er representert av de røde og gule prikkene på kartet.

Hold musepekeren over prikken for å se navnet på stasjonen.

Klikk så for å se værobservasjoner og -varsler.

For å forandre kartet kan du klikke på den grønne knappen med svart kryss for å zoome inn, på den grønne knappen med strek for å zoome ut, eller på de grønne pilene for å se tilstøtende kart.


METAR-TAF: